Time;durP1;ratioP1;P1;durP2;ratioP2;P2;SDS_P1;SDS_P2;PMS_P1;PMS_P2;Temp;Humidity;BMP_temperature;BMP_pressure;BME280_temperature;BME280_humidity;BME280_pressure;Samples;Min_cycle;Max_cycle;Signal;HPM_P1;HPM_P2
2021/04/22 00:00:38;;;;;;;1.20;0.85;;;22.40;34.80;;;;;;5051883;28;20405;-58
2021/04/22 00:03:04;;;;;;;1.70;0.90;;;22.40;34.70;;;;;;5051677;28;20394;-58
2021/04/22 00:05:35;;;;;;;1.60;0.90;;;22.40;34.60;;;;;;5051882;28;20735;-58
2021/04/22 00:08:03;;;;;;;1.30;0.90;;;22.40;34.70;;;;;;5051255;28;20393;-58
2021/04/22 00:10:45;;;;;;;1.13;0.80;;;22.40;34.60;;;;;;5051562;28;20377;-59
2021/04/22 00:13:14;;;;;;;1.00;0.73;;;22.40;34.60;;;;;;5051837;28;20436;-58
2021/04/22 00:15:41;;;;;;;1.40;1.00;;;22.40;34.50;;;;;;5051715;28;20383;-58
2021/04/22 00:18:08;;;;;;;1.58;0.90;;;22.50;34.60;;;;;;5051713;28;20919;-58
2021/04/22 00:20:35;;;;;;;1.20;0.90;;;22.50;34.50;;;;;;5051758;28;20389;-58
2021/04/22 00:23:05;;;;;;;1.20;0.90;;;22.50;34.50;;;;;;5050915;28;20399;-58
2021/04/22 00:25:31;;;;;;;1.17;0.90;;;22.50;34.50;;;;;;5051684;28;20410;-58
2021/04/22 00:28:01;;;;;;;1.30;0.90;;;22.50;34.40;;;;;;5051555;28;20392;-58
2021/04/22 00:30:27;;;;;;;0.90;0.70;;;22.50;34.40;;;;;;5051616;28;20778;-58
2021/04/22 00:32:53;;;;;;;1.77;0.93;;;22.50;34.30;;;;;;5051057;28;20842;-57
2021/04/22 00:35:19;;;;;;;1.10;0.90;;;22.50;34.30;;;;;;5051554;28;20416;-58
2021/04/22 00:37:45;;;;;;;1.23;0.80;;;22.50;34.30;;;;;;5051071;28;20521;-58
2021/04/22 00:40:15;;;;;;;1.23;0.85;;;22.50;34.30;;;;;;5051399;28;20415;-58
2021/04/22 00:42:40;;;;;;;1.20;1.00;;;22.50;34.30;;;;;;5051263;28;20393;-58
2021/04/22 00:45:07;;;;;;;1.20;0.90;;;22.50;34.30;;;;;;5049701;28;20409;-57
2021/04/22 00:47:35;;;;;;;1.33;1.00;;;22.50;34.20;;;;;;5051165;28;20903;-57
2021/04/22 00:50:00;;;;;;;1.30;1.00;;;22.50;34.20;;;;;;5050118;28;20481;-58
2021/04/22 00:52:26;;;;;;;1.15;0.85;;;22.50;34.40;;;;;;5051180;28;20485;-58
2021/04/22 00:54:52;;;;;;;2.10;1.10;;;22.50;34.50;;;;;;5050650;28;20385;-59
2021/04/22 00:57:18;;;;;;;3.00;1.10;;;22.50;34.60;;;;;;5051003;28;20443;-58
2021/04/22 00:59:43;;;;;;;1.70;1.00;;;22.50;34.70;;;;;;5051296;28;20389;-58
2021/04/22 01:02:16;;;;;;;1.30;0.70;;;22.50;34.80;;;;;;5051209;28;20484;-58
2021/04/22 01:04:49;;;;;;;1.38;0.80;;;22.50;34.80;;;;;;5050992;28;20500;-58
2021/04/22 01:07:15;;;;;;;1.67;0.88;;;22.50;34.80;;;;;;5051048;28;20477;-59
2021/04/22 01:09:41;;;;;;;1.70;0.80;;;22.50;34.80;;;;;;5051149;28;20443;-58
2021/04/22 01:12:08;;;;;;;1.60;0.80;;;22.50;34.80;;;;;;5051133;28;20389;-58
2021/04/22 01:14:34;;;;;;;1.27;0.70;;;22.50;34.70;;;;;;5049904;28;20886;-58
2021/04/22 01:17:00;;;;;;;1.45;0.82;;;22.50;34.80;;;;;;5050703;28;20393;-58
2021/04/22 01:19:26;;;;;;;1.53;0.80;;;22.50;34.70;;;;;;5051064;28;20436;-58
2021/04/22 01:21:52;;;;;;;1.30;0.93;;;22.50;34.70;;;;;;5051132;28;20417;-58
2021/04/22 01:24:19;;;;;;;5.67;1.00;;;22.50;34.60;;;;;;5050804;28;20385;-58
2021/04/22 01:26:44;;;;;;;1.30;0.90;;;22.50;34.60;;;;;;5050750;28;20954;-58
2021/04/22 01:29:11;;;;;;;1.30;0.80;;;22.50;34.60;;;;;;5050739;28;20393;-58
2021/04/22 01:31:37;;;;;;;1.40;1.00;;;22.50;34.50;;;;;;5049750;28;20447;-58
2021/04/22 01:34:05;;;;;;;0.93;0.70;;;22.50;34.50;;;;;;5050965;28;20393;-58
2021/04/22 01:36:34;;;;;;;1.20;0.90;;;22.50;34.50;;;;;;5050939;28;20447;-58
2021/04/22 01:38:59;;;;;;;1.23;0.90;;;22.50;34.40;;;;;;5048899;28;20413;-58
2021/04/22 01:41:27;;;;;;;1.30;0.80;;;22.50;34.40;;;;;;5050421;28;20908;-58
2021/04/22 01:43:53;;;;;;;1.63;1.10;;;22.50;34.40;;;;;;5050669;28;20922;-58
2021/04/22 01:46:18;;;;;;;1.20;0.80;;;22.50;34.40;;;;;;5050622;28;20425;-58
2021/04/22 01:48:44;;;;;;;1.33;0.90;;;22.50;34.40;;;;;;5050702;28;20390;-58
2021/04/22 01:51:10;;;;;;;1.48;0.80;;;22.50;34.40;;;;;;5051047;28;20396;-58
2021/04/22 01:53:35;;;;;;;1.03;0.77;;;22.50;34.40;;;;;;5054436;28;20412;-58
2021/04/22 01:56:01;;;;;;;1.13;0.77;;;22.50;34.30;;;;;;5054343;28;20393;-58
2021/04/22 01:58:27;;;;;;;1.40;0.80;;;22.50;34.30;;;;;;5054320;28;20385;-58
2021/04/22 02:00:55;;;;;;;1.10;0.80;;;22.50;34.30;;;;;;5053862;28;20397;-58
2021/04/22 02:03:22;;;;;;;1.08;0.70;;;22.50;34.30;;;;;;5054332;28;20398;-58
2021/04/22 02:05:48;;;;;;;1.00;0.80;;;22.50;34.30;;;;;;5054182;28;20432;-58
2021/04/22 02:08:15;;;;;;;0.93;0.70;;;22.50;34.20;;;;;;5054143;28;20378;-58
2021/04/22 02:10:42;;;;;;;1.65;1.00;;;22.50;34.30;;;;;;5053984;28;20418;-58
2021/04/22 02:13:09;;;;;;;1.30;0.85;;;22.50;34.30;;;;;;5053643;28;20382;-58
2021/04/22 02:15:36;;;;;;;1.25;0.90;;;22.50;34.20;;;;;;5054040;28;20409;-57
2021/04/22 02:18:02;;;;;;;1.02;0.70;;;22.50;34.20;;;;;;5054022;28;20448;-58
2021/04/22 02:20:28;;;;;;;1.25;0.77;;;22.50;34.20;;;;;;5053967;28;20451;-58
2021/04/22 02:22:54;;;;;;;1.80;0.88;;;22.50;34.20;;;;;;5053435;28;20776;-58
2021/04/22 02:25:22;;;;;;;1.20;0.90;;;22.50;34.20;;;;;;5053801;28;20473;-58
2021/04/22 02:27:47;;;;;;;1.23;0.77;;;22.50;34.10;;;;;;5053879;28;20394;-58
2021/04/22 02:30:18;;;;;;;1.10;0.80;;;22.50;34.20;;;;;;5053857;28;20402;-58
2021/04/22 02:32:44;;;;;;;1.15;0.70;;;22.50;34.10;;;;;;5052527;28;20393;-59
2021/04/22 02:35:12;;;;;;;1.20;0.90;;;22.50;34.10;;;;;;5053377;28;20448;-59
2021/04/22 02:37:38;;;;;;;1.10;0.80;;;22.50;34.10;;;;;;5053658;28;20937;-58
2021/04/22 02:40:06;;;;;;;1.35;0.80;;;22.50;34.10;;;;;;5053580;28;20448;-58
2021/04/22 02:42:32;;;;;;;0.93;0.75;;;22.50;34.10;;;;;;5053410;28;20854;-58
2021/04/22 02:44:57;;;;;;;1.17;0.80;;;22.50;34.10;;;;;;5052956;28;20411;-58
2021/04/22 02:47:23;;;;;;;1.10;0.80;;;22.50;34.10;;;;;;5053445;28;20510;-58
2021/04/22 02:49:49;;;;;;;1.30;0.80;;;22.50;34.10;;;;;;5053439;28;20381;-58
2021/04/22 02:52:14;;;;;;;1.20;0.80;;;22.50;34.10;;;;;;5053411;28;20393;-58
2021/04/22 02:54:40;;;;;;;1.20;0.87;;;22.50;34.00;;;;;;5053342;28;20435;-59
2021/04/22 02:57:06;;;;;;;1.55;1.00;;;22.50;34.00;;;;;;5052255;28;20476;-58
2021/04/22 02:59:31;;;;;;;1.80;1.20;;;22.50;34.00;;;;;;5052931;28;20386;-58
2021/04/22 03:01:57;;;;;;;1.55;1.13;;;22.40;33.90;;;;;;5053113;28;20397;-58
2021/04/22 03:04:22;;;;;;;1.90;1.20;;;22.40;33.90;;;;;;5052004;28;20389;-58
2021/04/22 03:06:48;;;;;;;1.58;1.08;;;22.50;33.90;;;;;;5052781;28;20421;-58
2021/04/22 03:09:14;;;;;;;1.70;1.10;;;22.50;33.90;;;;;;5052817;28;20385;-58
2021/04/22 03:11:40;;;;;;;1.90;1.40;;;22.50;34.00;;;;;;5051186;28;20487;-58
2021/04/22 03:14:05;;;;;;;2.07;1.37;;;22.40;33.90;;;;;;5052463;28;20390;-58
2021/04/22 03:16:31;;;;;;;2.25;1.42;;;22.50;33.90;;;;;;5051577;28;20442;-58
2021/04/22 03:18:57;;;;;;;2.30;1.60;;;22.50;33.90;;;;;;5052347;28;20393;-58
2021/04/22 03:21:22;;;;;;;1.95;1.40;;;22.40;33.90;;;;;;5052805;28;20408;-58
2021/04/22 03:23:48;;;;;;;1.80;1.30;;;22.40;33.90;;;;;;5052759;28;20472;-58
2021/04/22 03:26:14;;;;;;;2.20;1.60;;;22.40;33.90;;;;;;5052497;28;20769;-58
2021/04/22 03:28:39;;;;;;;2.20;1.42;;;22.40;33.90;;;;;;5052690;28;20452;-58
2021/04/22 03:31:05;;;;;;;2.58;1.75;;;22.40;33.90;;;;;;5052053;28;20782;-58
2021/04/22 03:33:30;;;;;;;2.17;1.40;;;22.40;33.90;;;;;;5052580;28;20476;-58
2021/04/22 03:35:56;;;;;;;2.05;1.40;;;22.40;33.80;;;;;;5052389;28;20509;-58
2021/04/22 03:38:22;;;;;;;2.47;1.30;;;22.40;33.80;;;;;;5052486;28;20385;-58
2021/04/22 03:40:47;;;;;;;2.80;1.70;;;22.40;33.80;;;;;;5052261;28;20470;-58
2021/04/22 03:43:13;;;;;;;1.95;1.42;;;22.40;33.80;;;;;;5052116;28;20382;-58
2021/04/22 03:45:39;;;;;;;1.90;1.30;;;22.40;33.80;;;;;;5052078;28;20966;-58
2021/04/22 03:48:05;;;;;;;2.40;1.50;;;22.40;33.80;;;;;;5052272;28;20390;-58
2021/04/22 03:50:31;;;;;;;2.22;1.48;;;22.40;33.80;;;;;;5052236;28;20394;-58
2021/04/22 03:52:57;;;;;;;1.90;1.40;;;22.40;33.80;;;;;;5051669;28;20374;-58
2021/04/22 03:55:22;;;;;;;2.03;1.50;;;22.40;33.70;;;;;;5052091;28;20401;-58
2021/04/22 03:57:48;;;;;;;2.20;1.50;;;22.40;33.80;;;;;;5052165;28;20528;-58
2021/04/22 04:00:17;;;;;;;1.87;1.50;;;22.40;33.80;;;;;;5052263;28;21099;-57
2021/04/22 04:02:44;;;;;;;2.10;1.50;;;22.40;33.70;;;;;;5051995;28;20471;-58
2021/04/22 04:05:10;;;;;;;1.95;1.38;;;22.40;33.80;;;;;;5051458;28;20886;-58
2021/04/22 04:07:36;;;;;;;2.42;1.60;;;22.30;34.00;;;;;;5052043;28;20435;-58
2021/04/22 04:10:04;;;;;;;3.20;1.52;;;22.30;34.10;;;;;;5051871;28;20384;-57
2021/04/22 04:12:30;;;;;;;3.15;1.70;;;22.30;34.50;;;;;;5051765;28;20401;-58
2021/04/22 04:14:56;;;;;;;2.63;1.53;;;22.30;34.40;;;;;;5051102;28;20389;-58
2021/04/22 04:17:22;;;;;;;3.33;1.92;;;22.30;34.40;;;;;;5051761;28;20386;-58
2021/04/22 04:19:48;;;;;;;4.00;1.65;;;22.30;34.50;;;;;;5051726;28;20386;-58
2021/04/22 04:22:13;;;;;;;2.90;1.58;;;22.30;34.60;;;;;;5051667;28;20523;-58
2021/04/22 04:24:39;;;;;;;1.97;1.50;;;22.30;35.10;;;;;;5051571;28;20555;-58
2021/04/22 04:27:05;;;;;;;2.78;1.60;;;22.40;34.60;;;;;;5051112;28;20409;-58
2021/04/22 04:29:31;;;;;;;3.20;1.52;;;22.40;35.00;;;;;;5051564;28;20389;-58
2021/04/22 04:31:56;;;;;;;2.17;1.45;;;22.30;35.50;;;;;;5044977;28;20393;-57
2021/04/22 04:34:23;;;;;;;2.50;1.40;;;22.40;35.30;;;;;;5051890;28;20468;-58
2021/04/22 04:36:48;;;;;;;2.70;1.60;;;22.40;35.10;;;;;;5051534;28;20877;-58
2021/04/22 04:39:14;;;;;;;2.83;1.50;;;22.40;35.00;;;;;;5051142;28;20464;-57
2021/04/22 04:41:41;;;;;;;1.85;1.40;;;22.40;34.70;;;;;;5051491;28;20389;-58
2021/04/22 04:44:07;;;;;;;1.88;1.42;;;22.40;34.80;;;;;;5051476;28;20392;-58
2021/04/22 04:46:34;;;;;;;3.92;1.63;;;22.40;34.70;;;;;;5051182;28;20453;-57
2021/04/22 04:49:01;;;;;;;2.85;1.30;;;22.40;34.50;;;;;;5050795;28;20495;-57
2021/04/22 04:51:26;;;;;;;5.15;1.40;;;22.40;34.60;;;;;;5051414;28;20396;-58
2021/04/22 04:53:52;;;;;;;2.90;1.40;;;22.40;34.50;;;;;;5051308;28;20389;-58
2021/04/22 04:56:19;;;;;;;2.95;1.55;;;22.40;34.80;;;;;;5051255;28;20382;-57
2021/04/22 04:58:48;;;;;;;6.30;1.75;;;22.40;34.30;;;;;;5051309;28;20563;-58
2021/04/22 05:01:14;;;;;;;5.65;1.98;;;22.40;34.30;;;;;;5050719;28;20382;-58
2021/04/22 05:03:40;;;;;;;3.80;1.60;;;22.30;34.90;;;;;;5051280;28;20443;-58
2021/04/22 05:06:06;;;;;;;4.05;1.60;;;22.30;34.60;;;;;;5051050;28;20413;-58
2021/04/22 05:08:33;;;;;;;2.87;1.50;;;22.30;34.50;;;;;;5051339;28;20880;-58
2021/04/22 05:10:59;;;;;;;3.22;1.38;;;22.20;34.50;;;;;;5050685;28;20385;-58
2021/04/22 05:13:24;;;;;;;4.60;1.50;;;22.20;34.70;;;;;;5051184;28;20385;-58
2021/04/22 05:15:50;;;;;;;4.50;1.50;;;22.20;35.00;;;;;;5051102;28;20897;-58
2021/04/22 05:18:16;;;;;;;5.28;1.38;;;22.20;35.10;;;;;;5051117;28;20729;-58
2021/04/22 05:20:41;;;;;;;7.07;1.60;;;22.20;35.10;;;;;;5051005;28;20466;-58
2021/04/22 05:23:07;;;;;;;5.40;1.60;;;22.10;35.70;;;;;;5050534;28;20373;-58
2021/04/22 05:25:32;;;;;;;3.80;1.40;;;22.10;35.60;;;;;;5050883;28;20401;-58
2021/04/22 05:27:58;;;;;;;3.45;1.25;;;22.10;35.50;;;;;;5054256;28;20423;-57
2021/04/22 05:30:24;;;;;;;4.27;1.87;;;22.10;35.50;;;;;;5053642;28;20439;-58
2021/04/22 05:32:50;;;;;;;5.38;1.60;;;22.10;35.70;;;;;;5054777;28;20401;-58
2021/04/22 05:35:16;;;;;;;3.58;1.52;;;22.10;35.70;;;;;;5054329;28;20388;-58
2021/04/22 05:37:42;;;;;;;4.65;1.50;;;22.00;35.70;;;;;;5054717;28;20416;-58
2021/04/22 05:40:08;;;;;;;4.22;1.60;;;22.00;35.80;;;;;;5054702;28;20746;-58
2021/04/22 05:42:34;;;;;;;4.38;1.45;;;22.00;35.70;;;;;;5054632;28;20382;-58
2021/04/22 05:45:00;;;;;;;3.63;1.70;;;22.00;35.80;;;;;;5054111;28;20404;-59
2021/04/22 05:47:25;;;;;;;2.78;1.42;;;22.00;35.70;;;;;;5054494;28;20406;-58
2021/04/22 05:49:51;;;;;;;2.70;1.40;;;22.00;35.70;;;;;;5054486;28;20794;-59
2021/04/22 05:52:17;;;;;;;4.78;1.60;;;22.00;35.70;;;;;;5054482;28;20398;-58
2021/04/22 05:54:43;;;;;;;3.70;1.40;;;22.00;35.70;;;;;;5054392;28;20404;-58
2021/04/22 05:57:09;;;;;;;2.20;1.50;;;22.00;35.70;;;;;;5053560;28;20797;-64
2021/04/22 05:59:34;;;;;;;3.38;1.40;;;22.00;35.70;;;;;;5048914;28;20897;-58
2021/04/22 06:02:00;;;;;;;4.25;1.73;;;22.00;35.70;;;;;;5054012;28;20421;-59
2021/04/22 06:04:25;;;;;;;3.43;1.60;;;22.00;35.60;;;;;;5053875;28;20492;-58
2021/04/22 06:06:51;;;;;;;3.13;1.50;;;22.00;35.60;;;;;;5054476;28;20410;-58
2021/04/22 06:09:17;;;;;;;3.20;1.47;;;22.00;35.60;;;;;;5053740;28;20384;-58
2021/04/22 06:11:42;;;;;;;2.72;1.48;;;22.00;35.70;;;;;;5053000;28;20750;-58
2021/04/22 06:14:08;;;;;;;2.50;1.30;;;21.90;35.50;;;;;;5054114;28;20390;-58
2021/04/22 06:16:34;;;;;;;2.70;1.48;;;21.90;35.50;;;;;;5054109;28;20377;-58
2021/04/22 06:18:59;;;;;;;1.92;1.40;;;21.90;35.60;;;;;;5053816;28;20405;-58
2021/04/22 06:21:25;;;;;;;2.10;1.13;;;21.90;35.60;;;;;;5053636;28;20447;-58
2021/04/22 06:23:52;;;;;;;2.80;1.42;;;21.90;35.50;;;;;;5053875;28;20389;-59
2021/04/22 06:26:19;;;;;;;2.03;1.45;;;21.90;35.60;;;;;;5053695;28;20413;-58
2021/04/22 06:28:44;;;;;;;2.10;1.40;;;21.80;35.60;;;;;;5053965;28;20381;-59
2021/04/22 06:31:10;;;;;;;2.75;1.40;;;21.80;35.60;;;;;;5052075;28;20397;-58
2021/04/22 06:33:36;;;;;;;2.20;1.50;;;21.80;35.60;;;;;;5053701;28;20385;-58
2021/04/22 06:36:02;;;;;;;2.15;1.42;;;21.80;35.50;;;;;;5053627;28;20461;-58
2021/04/22 06:38:28;;;;;;;2.28;1.50;;;21.80;35.60;;;;;;5053426;28;20439;-58
2021/04/22 06:40:54;;;;;;;2.40;1.60;;;21.80;35.40;;;;;;5053523;28;20389;-58
2021/04/22 06:43:19;;;;;;;2.33;1.60;;;21.80;35.50;;;;;;5053185;28;20389;-58
2021/04/22 06:45:46;;;;;;;1.90;1.40;;;21.80;35.40;;;;;;5053318;28;20478;-58
2021/04/22 06:48:13;;;;;;;2.70;1.52;;;21.80;35.40;;;;;;5053310;28;20381;-58
2021/04/22 06:50:40;;;;;;;2.50;1.40;;;21.90;35.60;;;;;;5053314;28;20925;-58
2021/04/22 06:53:06;;;;;;;2.30;1.52;;;21.90;35.40;;;;;;5052838;28;20408;-58
2021/04/22 06:55:32;;;;;;;3.42;1.50;;;21.90;35.30;;;;;;5053407;28;20396;-58
2021/04/22 06:58:01;;;;;;;2.50;1.25;;;21.80;35.30;;;;;;5053160;28;20381;-65
2021/04/22 07:00:29;;;;;;;2.08;1.40;;;21.80;35.30;;;;;;5053262;28;20405;-58
2021/04/22 07:02:55;;;;;;;2.38;1.35;;;21.80;35.30;;;;;;5053153;28;20873;-58
2021/04/22 07:05:21;;;;;;;2.10;1.40;;;21.90;35.30;;;;;;5052544;28;20416;-58
2021/04/22 07:07:47;;;;;;;3.17;1.63;;;21.90;35.40;;;;;;5053131;28;20385;-58
2021/04/22 07:10:13;;;;;;;2.60;1.40;;;21.90;35.10;;;;;;5052938;28;20443;-58
2021/04/22 07:12:39;;;;;;;2.00;1.30;;;21.90;35.60;;;;;;5053055;28;20467;-58
2021/04/22 07:15:07;;;;;;;2.38;1.45;;;21.90;35.30;;;;;;5052525;28;20397;-58
2021/04/22 07:17:32;;;;;;;4.33;1.80;;;22.00;35.20;;;;;;5052933;28;20472;-58
2021/04/22 07:19:58;;;;;;;4.00;1.70;;;22.00;35.50;;;;;;5052846;28;20469;-58
2021/04/22 07:22:25;;;;;;;6.32;1.77;;;21.90;35.70;;;;;;5052756;28;20393;-58
2021/04/22 07:24:55;;;;;;;4.82;1.70;;;21.90;36.10;;;;;;5052557;28;20816;-58
2021/04/22 07:27:21;;;;;;;4.00;1.58;;;21.80;36.30;;;;;;5052242;28;20905;-58
2021/04/22 07:29:47;;;;;;;4.55;1.50;;;21.80;36.10;;;;;;5052762;28;20425;-58
2021/04/22 07:32:16;;;;;;;4.10;1.50;;;21.80;36.20;;;;;;5052664;28;20477;-58
2021/04/22 07:34:46;;;;;;;3.28;1.42;;;21.80;36.20;;;;;;5052522;28;20735;-58
2021/04/22 07:37:12;;;;;;;3.87;1.37;;;21.80;36.10;;;;;;5051964;28;20436;-58
2021/04/22 07:39:37;;;;;;;3.92;1.30;;;21.80;36.20;;;;;;5052474;28;20404;-58
2021/04/22 07:42:03;;;;;;;3.77;1.40;;;21.80;36.40;;;;;;5052495;28;20733;-58
2021/04/22 07:44:29;;;;;;;5.65;2.00;;;21.80;36.30;;;;;;5052400;28;20805;-59
2021/04/22 07:46:54;;;;;;;3.83;1.60;;;21.80;36.40;;;;;;5052040;28;20478;-59
2021/04/22 07:49:20;;;;;;;2.15;1.40;;;21.80;36.30;;;;;;5051234;28;20484;-59
2021/04/22 07:51:46;;;;;;;3.07;1.30;;;21.80;36.30;;;;;;5050952;28;20416;-59
2021/04/22 07:54:12;;;;;;;2.22;1.30;;;21.80;36.30;;;;;;5052132;28;20385;-59
2021/04/22 07:56:38;;;;;;;2.70;1.60;;;21.70;36.20;;;;;;5051015;28;20420;-58
2021/04/22 07:59:04;;;;;;;3.13;1.40;;;21.70;36.10;;;;;;5050519;28;20400;-67
2021/04/22 08:01:30;;;;;;;3.55;1.45;;;21.70;36.20;;;;;;5051868;28;20750;-63
2021/04/22 08:03:56;;;;;;;3.20;1.40;;;21.70;36.00;;;;;;5051923;28;20745;-67
2021/04/22 08:06:22;;;;;;;3.75;1.60;;;21.80;36.10;;;;;;5052066;28;20409;-60
2021/04/22 08:08:48;;;;;;;2.13;1.30;;;21.80;36.30;;;;;;5052008;28;20384;-67
2021/04/22 08:11:14;;;;;;;4.82;1.67;;;21.80;36.90;;;;;;5051423;28;20384;-67
2021/04/22 08:13:40;;;;;;;2.78;1.45;;;21.80;36.50;;;;;;5050664;28;20515;-67
2021/04/22 08:16:06;;;;;;;2.53;1.40;;;21.80;36.40;;;;;;5051867;28;20393;-68
2021/04/22 08:18:32;;;;;;;3.88;1.50;;;21.80;36.30;;;;;;5051800;28;20386;-67
2021/04/22 08:20:59;;;;;;;2.55;1.40;;;21.80;36.30;;;;;;5051763;28;20480;-64
2021/04/22 08:23:28;;;;;;;2.90;1.58;;;21.80;36.30;;;;;;5049954;28;20447;-61
2021/04/22 08:25:58;;;;;;;3.10;1.48;;;21.80;36.30;;;;;;5051566;28;20424;-68
2021/04/22 08:28:25;;;;;;;2.75;1.40;;;21.80;36.20;;;;;;5051734;28;20386;-60
2021/04/22 08:30:57;;;;;;;2.05;1.40;;;21.90;36.40;;;;;;5051610;28;20386;-61
2021/04/22 08:33:25;;;;;;;2.90;1.30;;;21.90;36.20;;;;;;5051103;28;20424;-61
2021/04/22 08:35:51;;;;;;;2.47;1.30;;;21.90;36.30;;;;;;5051526;28;20412;-58
2021/04/22 08:38:17;;;;;;;2.70;1.38;;;21.90;36.40;;;;;;5051533;28;20392;-59
2021/04/22 08:40:43;;;;;;;2.03;1.25;;;21.90;36.20;;;;;;5051550;28;20813;-60
2021/04/22 08:43:09;;;;;;;2.53;1.30;;;21.90;36.30;;;;;;5051164;28;20439;-61
2021/04/22 08:45:37;;;;;;;2.58;1.50;;;21.90;36.30;;;;;;5051201;28;20415;-59
2021/04/22 08:48:04;;;;;;;2.05;1.30;;;21.80;36.20;;;;;;5051384;28;20377;-60
2021/04/22 08:50:31;;;;;;;3.70;1.60;;;21.90;36.10;;;;;;5051385;28;20878;-59
2021/04/22 08:53:04;;;;;;;1.90;1.33;;;21.80;36.10;;;;;;5051546;28;20389;-59
2021/04/22 08:55:31;;;;;;;3.85;1.52;;;21.80;36.60;;;;;;5051213;28;20389;-67
2021/04/22 08:57:59;;;;;;;3.17;1.40;;;21.80;36.10;;;;;;5051248;28;20413;-65
2021/04/22 09:00:28;;;;;;;3.30;1.42;;;21.80;36.00;;;;;;5050097;28;20409;-67
2021/04/22 09:02:54;;;;;;;2.35;1.33;;;21.80;36.10;;;;;;5054566;28;20472;-58
2021/04/22 09:05:20;;;;;;;3.45;1.40;;;21.80;36.20;;;;;;5053704;28;21022;-58
2021/04/22 09:07:46;;;;;;;2.33;1.30;;;21.90;36.20;;;;;;5055345;28;20385;-59
2021/04/22 09:10:14;;;;;;;2.87;1.40;;;21.90;36.10;;;;;;5055303;28;20389;-67
2021/04/22 09:12:40;;;;;;;2.90;1.40;;;21.90;36.20;;;;;;5055280;28;20385;-59
2021/04/22 09:15:11;;;;;;;3.10;1.30;;;21.90;36.10;;;;;;5054968;28;20767;-59
2021/04/22 09:17:38;;;;;;;3.20;1.50;;;21.90;36.20;;;;;;5050800;28;20877;-58
2021/04/22 09:20:06;;;;;;;2.92;1.40;;;21.90;36.20;;;;;;5043775;28;20402;-58
2021/04/22 09:22:43;;;;;;;3.53;1.60;;;21.90;36.20;;;;;;5035168;28;20395;-58
2021/04/22 09:25:16;;;;;;;6.50;2.15;;;21.90;36.10;;;;;;5034718;28;20415;-59
2021/04/22 09:27:43;;;;;;;8.50;2.55;;;21.90;36.40;;;;;;5034984;28;20521;-58
2021/04/22 09:30:09;;;;;;;5.85;2.60;;;21.90;36.00;;;;;;5034889;28;20425;-58
2021/04/22 09:32:36;;;;;;;7.40;2.40;;;21.90;36.10;;;;;;5034996;28;20403;-58
2021/04/22 09:35:14;;;;;;;10.52;2.58;;;22.00;36.10;;;;;;5034929;28;20486;-58
2021/04/22 09:37:49;;;;;;;6.32;1.80;;;21.90;36.10;;;;;;5034792;28;20386;-59
2021/04/22 09:40:24;;;;;;;7.72;2.13;;;22.00;36.10;;;;;;5033513;28;20850;-58
2021/04/22 09:42:51;;;;;;;7.05;2.10;;;21.90;36.00;;;;;;5034651;28;20398;-58
2021/04/22 09:45:20;;;;;;;7.22;2.28;;;22.00;36.30;;;;;;5032734;28;20471;-59
2021/04/22 09:47:46;;;;;;;7.03;2.10;;;22.00;36.20;;;;;;5034562;28;20399;-59
2021/04/22 09:50:16;;;;;;;7.23;2.10;;;22.00;36.10;;;;;;5033312;28;20399;-59
2021/04/22 09:52:45;;;;;;;8.57;2.42;;;22.10;36.70;;;;;;5033470;28;20747;-59
2021/04/22 09:55:14;;;;;;;7.00;2.20;;;22.10;36.50;;;;;;5034305;28;20380;-58
2021/04/22 09:57:40;;;;;;;10.30;2.30;;;22.20;37.00;;;;;;5034466;28;20392;-58
2021/04/22 10:00:17;;;;;;;5.85;2.28;;;22.10;36.60;;;;;;5034151;28;20387;-58
2021/04/22 10:02:57;;;;;;;7.47;2.10;;;22.10;36.60;;;;;;5034217;28;20880;-58
2021/04/22 10:05:32;;;;;;;6.10;2.20;;;22.20;36.60;;;;;;5030280;28;20423;-58
2021/04/22 10:08:13;;;;;;;7.10;1.88;;;22.20;36.40;;;;;;5034178;28;20393;-58
2021/04/22 10:11:17;;;;;;;5.13;1.80;;;22.20;36.30;;;;;;5032955;28;20469;-58
2021/04/22 10:13:48;;;;;;;6.25;2.28;;;22.30;36.90;;;;;;5011738;28;20790;-58
2021/04/22 10:16:32;;;;;;;6.65;2.03;;;22.20;36.20;;;;;;5012158;28;20484;-58
2021/04/22 10:18:58;;;;;;;5.72;1.90;;;22.20;36.10;;;;;;5026010;28;20492;-58
2021/04/22 10:21:24;;;;;;;7.55;2.00;;;22.20;36.20;;;;;;5032274;28;20867;-58
2021/04/22 10:23:51;;;;;;;5.83;2.00;;;22.20;36.90;;;;;;5033772;28;20506;-58
2021/04/22 10:26:20;;;;;;;7.68;2.03;;;22.20;36.10;;;;;;5032655;28;20415;-58
2021/04/22 10:28:46;;;;;;;5.88;1.90;;;22.30;36.20;;;;;;5026603;28;20399;-58
2021/04/22 10:31:13;;;;;;;9.13;2.10;;;22.20;36.10;;;;;;5033840;28;20383;-58
2021/04/22 10:33:39;;;;;;;7.00;2.17;;;22.30;36.20;;;;;;5033657;28;20385;-58
2021/04/22 10:36:05;;;;;;;8.02;2.35;;;22.30;36.70;;;;;;5033682;28;20383;-58
2021/04/22 10:38:31;;;;;;;5.65;2.17;;;22.30;36.70;;;;;;5033287;28;20378;-58
2021/04/22 10:40:57;;;;;;;7.07;2.13;;;22.30;36.80;;;;;;5031018;28;20399;-58
2021/04/22 10:43:28;;;;;;;5.88;1.85;;;22.30;36.60;;;;;;5033169;28;20748;-58
2021/04/22 10:45:56;;;;;;;5.88;2.25;;;22.30;36.50;;;;;;5031701;28;20972;-58
2021/04/22 10:48:23;;;;;;;8.13;2.30;;;22.30;36.40;;;;;;5033359;28;20866;-58
2021/04/22 10:50:52;;;;;;;6.80;2.20;;;22.20;36.40;;;;;;5033330;28;20478;-58
2021/04/22 10:53:20;;;;;;;5.80;2.30;;;22.20;36.50;;;;;;5032858;28;20924;-58
2021/04/22 10:55:47;;;;;;;6.15;2.03;;;22.20;36.50;;;;;;5033179;28;20756;-58
2021/04/22 10:58:21;;;;;;;6.00;2.30;;;22.30;36.50;;;;;;5031867;28;20875;-58
2021/04/22 11:00:56;;;;;;;7.32;2.13;;;22.30;36.80;;;;;;5033184;28;20391;-58
2021/04/22 11:03:32;;;;;;;7.82;2.28;;;22.30;36.50;;;;;;5032748;28;20445;-58
2021/04/22 11:06:13;;;;;;;6.75;2.20;;;22.30;36.70;;;;;;5033086;28;20956;-58
2021/04/22 11:08:43;;;;;;;6.20;2.10;;;22.40;36.30;;;;;;5033158;28;20895;-58
2021/04/22 11:11:24;;;;;;;7.40;2.15;;;22.40;36.40;;;;;;5031680;28;20399;-58
2021/04/22 11:14:02;;;;;;;5.53;2.00;;;22.40;36.30;;;;;;5031662;28;20383;-58
2021/04/22 11:16:31;;;;;;;5.97;2.22;;;22.40;36.50;;;;;;5031690;28;20398;-58
2021/04/22 11:18:56;;;;;;;5.70;2.05;;;22.40;36.30;;;;;;5032862;28;20391;-58
2021/04/22 11:21:29;;;;;;;5.03;1.93;;;22.50;36.90;;;;;;5042118;28;20399;-58
2021/04/22 11:24:00;;;;;;;10.65;3.45;;;22.50;36.30;;;;;;5031891;28;20394;-58
2021/04/22 11:26:36;;;;;;;12.15;3.85;;;22.50;35.80;;;;;;5032661;28;20951;-58
2021/04/22 11:29:17;;;;;;;11.73;3.63;;;22.50;35.70;;;;;;5032900;28;20478;-58
2021/04/22 11:31:51;;;;;;;11.48;3.53;;;22.50;35.60;;;;;;5032534;28;20736;-58
2021/04/22 11:34:28;;;;;;;13.02;3.13;;;22.40;36.20;;;;;;5032886;28;20391;-60
2021/04/22 11:36:54;;;;;;;11.15;2.75;;;22.40;36.40;;;;;;5032651;28;20454;-58
2021/04/22 11:39:32;;;;;;;10.15;2.60;;;22.40;36.20;;;;;;5032228;28;20478;-58
2021/04/22 11:41:59;;;;;;;8.90;2.90;;;22.50;36.10;;;;;;5032475;28;20394;-58
2021/04/22 11:44:34;;;;;;;10.10;2.70;;;22.40;36.10;;;;;;5031774;28;20893;-58
2021/04/22 11:47:00;;;;;;;11.15;2.60;;;22.40;36.30;;;;;;5041625;28;20427;-58
2021/04/22 11:49:29;;;;;;;10.50;2.60;;;22.40;36.60;;;;;;5051476;28;20480;-58
2021/04/22 11:51:56;;;;;;;12.90;2.97;;;22.40;36.40;;;;;;5051548;28;20393;-58
2021/04/22 11:54:33;;;;;;;7.82;2.42;;;22.40;36.80;;;;;;5050349;28;20386;-58
2021/04/22 11:57:04;;;;;;;12.65;2.70;;;22.40;36.40;;;;;;5050606;28;20397;-58
2021/04/22 11:59:31;;;;;;;11.32;2.90;;;22.40;36.70;;;;;;5051420;28;20840;-58
2021/04/22 12:02:06;;;;;;;13.07;3.20;;;22.40;36.70;;;;;;5050449;28;20727;-58
2021/04/22 12:04:40;;;;;;;12.68;2.80;;;22.50;37.60;;;;;;5051950;28;20468;-58
2021/04/22 12:07:17;;;;;;;8.87;2.50;;;22.40;36.90;;;;;;5051389;28;20424;-60
2021/04/22 12:09:46;;;;;;;16.17;2.60;;;22.40;37.80;;;;;;5050355;28;20752;-58
2021/04/22 12:12:23;;;;;;;11.40;2.40;;;22.50;37.70;;;;;;5050357;28;20485;-67
2021/04/22 12:14:54;;;;;;;8.40;2.50;;;22.50;38.10;;;;;;5050413;28;20393;-66
2021/04/22 12:17:27;;;;;;;9.17;2.57;;;22.60;38.00;;;;;;5051391;28;20386;-67
2021/04/22 12:19:59;;;;;;;7.10;2.25;;;22.60;37.70;;;;;;5051477;28;20523;-58
2021/04/22 12:22:28;;;;;;;7.40;2.40;;;22.60;37.40;;;;;;5051425;28;20421;-61
2021/04/22 12:24:54;;;;;;;9.68;2.25;;;22.70;37.50;;;;;;5050018;28;20385;-59
2021/04/22 12:27:31;;;;;;;8.07;2.22;;;22.60;37.50;;;;;;5050906;28;20398;-66
2021/04/22 12:29:58;;;;;;;6.97;2.35;;;22.60;37.50;;;;;;5050167;28;20389;-66
2021/04/22 12:32:23;;;;;;;6.07;2.10;;;22.60;37.20;;;;;;5050155;28;20393;-67
2021/04/22 12:34:50;;;;;;;6.72;2.35;;;22.70;37.20;;;;;;5049870;28;20396;-67
2021/04/22 12:37:16;;;;;;;4.90;2.10;;;22.70;37.00;;;;;;5049891;28;20405;-58
2021/04/22 12:39:53;;;;;;;3.58;2.20;;;22.70;37.00;;;;;;5049629;28;20401;-67
2021/04/22 12:42:25;;;;;;;4.65;2.38;;;22.70;36.90;;;;;;5050040;28;20420;-59
2021/04/22 12:44:58;;;;;;;6.05;2.30;;;22.70;37.20;;;;;;5049828;28;20399;-68
2021/04/22 12:47:54;;;;;;;6.47;2.30;;;22.80;36.80;;;;;;5049317;28;20429;-58